sensor_id;sensor_type;location;lat;lon;timestamp;pressure;altitude;pressure_sealevel;temperature;humidity
54389;BME280;40975;50.390;8.640;2022-12-05T00:01:26;98962.25;;;1.65;100.00
54389;BME280;40975;50.390;8.640;2022-12-05T00:03:54;98968.63;;;1.61;100.00
54389;BME280;40975;50.390;8.640;2022-12-05T00:06:20;98961.53;;;1.48;100.00
54389;BME280;40975;50.390;8.640;2022-12-05T00:08:47;98956.84;;;1.39;100.00
54389;BME280;40975;50.390;8.640;2022-12-05T00:11:16;98961.16;;;1.40;100.00
54389;BME280;40975;50.390;8.640;2022-12-05T00:13:42;98970.50;;;1.44;100.00
54389;BME280;40975;50.390;8.640;2022-12-05T00:16:10;98965.34;;;1.43;100.00
54389;BME280;40975;50.390;8.640;2022-12-05T00:18:35;98963.94;;;1.37;100.00
54389;BME280;40975;50.390;8.640;2022-12-05T00:21:01;98968.16;;;1.39;100.00
54389;BME280;40975;50.390;8.640;2022-12-05T00:23:26;98967.84;;;1.30;100.00
54389;BME280;40975;50.390;8.640;2022-12-05T00:25:52;98968.41;;;1.20;100.00
54389;BME280;40975;50.390;8.640;2022-12-05T00:28:17;98970.16;;;1.20;100.00
54389;BME280;40975;50.390;8.640;2022-12-05T00:30:42;98967.53;;;1.20;100.00
54389;BME280;40975;50.390;8.640;2022-12-05T00:33:08;98964.66;;;1.10;100.00
54389;BME280;40975;50.390;8.640;2022-12-05T00:35:33;98976.13;;;1.07;100.00
54389;BME280;40975;50.390;8.640;2022-12-05T00:37:59;98972.28;;;0.99;100.00
54389;BME280;40975;50.390;8.640;2022-12-05T00:40:24;98968.84;;;0.98;100.00
54389;BME280;40975;50.390;8.640;2022-12-05T00:42:49;98975.06;;;0.96;100.00
54389;BME280;40975;50.390;8.640;2022-12-05T00:45:15;98974.66;;;0.87;100.00
54389;BME280;40975;50.390;8.640;2022-12-05T00:47:40;98981.84;;;0.84;100.00
54389;BME280;40975;50.390;8.640;2022-12-05T00:50:06;98988.09;;;0.81;100.00
54389;BME280;40975;50.390;8.640;2022-12-05T00:52:31;98986.41;;;0.80;100.00
54389;BME280;40975;50.390;8.640;2022-12-05T00:54:57;98983.19;;;0.75;100.00
54389;BME280;40975;50.390;8.640;2022-12-05T00:57:22;98992.91;;;0.73;100.00
54389;BME280;40975;50.390;8.640;2022-12-05T00:59:47;98995.78;;;0.68;100.00
54389;BME280;40975;50.390;8.640;2022-12-05T01:02:13;98987.88;;;0.54;100.00
54389;BME280;40975;50.390;8.640;2022-12-05T01:04:38;98997.75;;;0.65;100.00
54389;BME280;40975;50.390;8.640;2022-12-05T01:07:03;99005.75;;;0.61;100.00
54389;BME280;40975;50.390;8.640;2022-12-05T01:09:29;99003.03;;;0.63;100.00
54389;BME280;40975;50.390;8.640;2022-12-05T01:11:54;99003.97;;;0.62;100.00
54389;BME280;40975;50.390;8.640;2022-12-05T01:14:21;99008.91;;;0.67;100.00
54389;BME280;40975;50.390;8.640;2022-12-05T01:16:48;99011.53;;;0.67;100.00
54389;BME280;40975;50.390;8.640;2022-12-05T01:19:17;99014.75;;;0.72;100.00
54389;BME280;40975;50.390;8.640;2022-12-05T01:21:42;99018.88;;;0.60;100.00
54389;BME280;40975;50.390;8.640;2022-12-05T01:24:09;99024.28;;;0.57;100.00
54389;BME280;40975;50.390;8.640;2022-12-05T01:26:36;99012.66;;;0.46;100.00
54389;BME280;40975;50.390;8.640;2022-12-05T01:29:02;99016.09;;;0.47;100.00
54389;BME280;40975;50.390;8.640;2022-12-05T01:31:30;99024.88;;;0.46;100.00
54389;BME280;40975;50.390;8.640;2022-12-05T01:33:58;99023.28;;;0.43;100.00
54389;BME280;40975;50.390;8.640;2022-12-05T01:36:25;99030.34;;;0.41;100.00
54389;BME280;40975;50.390;8.640;2022-12-05T01:38:51;99030.28;;;0.43;100.00
54389;BME280;40975;50.390;8.640;2022-12-05T01:41:20;99035.50;;;0.43;100.00
54389;BME280;40975;50.390;8.640;2022-12-05T01:46:25;99025.97;;;0.42;100.00
54389;BME280;40975;50.390;8.640;2022-12-05T01:48:56;99022.50;;;0.41;100.00
54389;BME280;40975;50.390;8.640;2022-12-05T01:51:22;99030.53;;;0.38;100.00
54389;BME280;40975;50.390;8.640;2022-12-05T01:53:48;99023.38;;;0.42;100.00
54389;BME280;40975;50.390;8.640;2022-12-05T01:56:15;99031.34;;;0.39;100.00
54389;BME280;40975;50.390;8.640;2022-12-05T01:58:41;99028.91;;;0.36;100.00
54389;BME280;40975;50.390;8.640;2022-12-05T02:01:07;99020.09;;;0.38;100.00
54389;BME280;40975;50.390;8.640;2022-12-05T02:03:34;99021.53;;;0.44;100.00
54389;BME280;40975;50.390;8.640;2022-12-05T02:06:00;99020.66;;;0.43;100.00
54389;BME280;40975;50.390;8.640;2022-12-05T02:08:27;99030.03;;;0.48;100.00
54389;BME280;40975;50.390;8.640;2022-12-05T02:10:55;99030.09;;;0.46;100.00
54389;BME280;40975;50.390;8.640;2022-12-05T02:13:42;99024.38;;;0.39;100.00
54389;BME280;40975;50.390;8.640;2022-12-05T02:18:56;99039.03;;;0.42;100.00
54389;BME280;40975;50.390;8.640;2022-12-05T02:21:48;99036.41;;;0.42;100.00
54389;BME280;40975;50.390;8.640;2022-12-05T02:27:43;99041.56;;;0.43;100.00
54389;BME280;40975;50.390;8.640;2022-12-05T02:30:20;99039.19;;;0.39;100.00
54389;BME280;40975;50.390;8.640;2022-12-05T02:33:07;99030.59;;;0.37;100.00
54389;BME280;40975;50.390;8.640;2022-12-05T02:36:02;99032.22;;;0.39;100.00
54389;BME280;40975;50.390;8.640;2022-12-05T02:38:35;99029.34;;;0.44;100.00
54389;BME280;40975;50.390;8.640;2022-12-05T02:46:09;99034.38;;;0.47;100.00
54389;BME280;40975;50.390;8.640;2022-12-05T02:48:36;99031.78;;;0.47;100.00
54389;BME280;40975;50.390;8.640;2022-12-05T02:51:03;99034.31;;;0.49;100.00
54389;BME280;40975;50.390;8.640;2022-12-05T02:53:30;99030.59;;;0.53;100.00
54389;BME280;40975;50.390;8.640;2022-12-05T02:55:58;99031.09;;;0.59;100.00
54389;BME280;40975;50.390;8.640;2022-12-05T02:58:30;99025.88;;;0.59;100.00
54389;BME280;40975;50.390;8.640;2022-12-05T03:00:58;99030.44;;;0.56;100.00
54389;BME280;40975;50.390;8.640;2022-12-05T03:03:24;99024.59;;;0.67;100.00
54389;BME280;40975;50.390;8.640;2022-12-05T03:05:56;99028.72;;;0.71;100.00
54389;BME280;40975;50.390;8.640;2022-12-05T03:08:29;99029.00;;;0.66;100.00
54389;BME280;40975;50.390;8.640;2022-12-05T03:10:57;99032.19;;;0.55;100.00
54389;BME280;40975;50.390;8.640;2022-12-05T03:13:26;99025.47;;;0.67;100.00
54389;BME280;40975;50.390;8.640;2022-12-05T03:15:57;99037.84;;;0.64;100.00
54389;BME280;40975;50.390;8.640;2022-12-05T03:18:28;99032.78;;;0.60;100.00
54389;BME280;40975;50.390;8.640;2022-12-05T03:21:10;99030.44;;;0.56;100.00
54389;BME280;40975;50.390;8.640;2022-12-05T03:23:43;99029.75;;;0.52;100.00
54389;BME280;40975;50.390;8.640;2022-12-05T03:31:52;99026.13;;;0.55;100.00
54389;BME280;40975;50.390;8.640;2022-12-05T03:37:05;99024.28;;;0.57;100.00
54389;BME280;40975;50.390;8.640;2022-12-05T03:39:35;99023.25;;;0.59;100.00
54389;BME280;40975;50.390;8.640;2022-12-05T03:42:13;99024.03;;;0.61;100.00
54389;BME280;40975;50.390;8.640;2022-12-05T03:44:51;99033.81;;;0.58;100.00
54389;BME280;40975;50.390;8.640;2022-12-05T03:49:55;99039.59;;;0.63;100.00
54389;BME280;40975;50.390;8.640;2022-12-05T03:52:28;99035.13;;;0.65;100.00
54389;BME280;40975;50.390;8.640;2022-12-05T03:54:59;99038.41;;;0.69;100.00
54389;BME280;40975;50.390;8.640;2022-12-05T03:57:36;99043.66;;;0.69;100.00
54389;BME280;40975;50.390;8.640;2022-12-05T04:00:06;99042.88;;;0.67;100.00
54389;BME280;40975;50.390;8.640;2022-12-05T04:05:51;99053.25;;;0.68;100.00
54389;BME280;40975;50.390;8.640;2022-12-05T04:08:20;99045.44;;;0.68;100.00
54389;BME280;40975;50.390;8.640;2022-12-05T04:10:48;99060.19;;;0.69;100.00
54389;BME280;40975;50.390;8.640;2022-12-05T04:13:32;99060.91;;;0.71;100.00
54389;BME280;40975;50.390;8.640;2022-12-05T04:16:12;99060.19;;;0.69;100.00
54389;BME280;40975;50.390;8.640;2022-12-05T04:19:11;99064.19;;;0.75;100.00
54389;BME280;40975;50.390;8.640;2022-12-05T04:21:42;99070.69;;;0.84;100.00
54389;BME280;40975;50.390;8.640;2022-12-05T04:24:16;99064.63;;;0.83;100.00
54389;BME280;40975;50.390;8.640;2022-12-05T04:29:47;99072.38;;;0.85;100.00
54389;BME280;40975;50.390;8.640;2022-12-05T04:32:17;99069.84;;;0.83;100.00
54389;BME280;40975;50.390;8.640;2022-12-05T04:34:48;99074.97;;;0.85;100.00
54389;BME280;40975;50.390;8.640;2022-12-05T04:37:18;99083.91;;;0.81;100.00
54389;BME280;40975;50.390;8.640;2022-12-05T04:39:56;99087.13;;;0.86;100.00
54389;BME280;40975;50.390;8.640;2022-12-05T04:42:27;99089.91;;;0.83;100.00
54389;BME280;40975;50.390;8.640;2022-12-05T04:45:01;99100.28;;;0.84;100.00
54389;BME280;40975;50.390;8.640;2022-12-05T04:47:36;99094.09;;;0.85;100.00
54389;BME280;40975;50.390;8.640;2022-12-05T04:50:05;99097.41;;;0.89;100.00
54389;BME280;40975;50.390;8.640;2022-12-05T04:52:32;99099.00;;;0.91;100.00
54389;BME280;40975;50.390;8.640;2022-12-05T04:55:07;99098.09;;;0.92;100.00
54389;BME280;40975;50.390;8.640;2022-12-05T04:57:39;99095.22;;;0.97;100.00
54389;BME280;40975;50.390;8.640;2022-12-05T05:00:06;99090.56;;;0.86;100.00
54389;BME280;40975;50.390;8.640;2022-12-05T05:02:56;99089.47;;;0.90;100.00
54389;BME280;40975;50.390;8.640;2022-12-05T05:05:22;99093.78;;;0.91;100.00
54389;BME280;40975;50.390;8.640;2022-12-05T05:07:52;99094.59;;;0.92;100.00
54389;BME280;40975;50.390;8.640;2022-12-05T05:10:30;99096.13;;;0.96;100.00
54389;BME280;40975;50.390;8.640;2022-12-05T05:12:56;99097.97;;;0.94;100.00
54389;BME280;40975;50.390;8.640;2022-12-05T05:15:22;99096.97;;;0.97;100.00
54389;BME280;40975;50.390;8.640;2022-12-05T05:17:47;99099.56;;;0.97;100.00
54389;BME280;40975;50.390;8.640;2022-12-05T05:20:12;99102.38;;;0.93;100.00
54389;BME280;40975;50.390;8.640;2022-12-05T05:22:55;99099.56;;;0.97;100.00
54389;BME280;40975;50.390;8.640;2022-12-05T05:25:21;99095.97;;;0.99;100.00
54389;BME280;40975;50.390;8.640;2022-12-05T05:27:52;99104.47;;;1.03;100.00
54389;BME280;40975;50.390;8.640;2022-12-05T05:30:19;99104.47;;;1.03;100.00
54389;BME280;40975;50.390;8.640;2022-12-05T05:32:45;99101.66;;;1.06;100.00
54389;BME280;40975;50.390;8.640;2022-12-05T05:35:11;99108.53;;;1.08;100.00
54389;BME280;40975;50.390;8.640;2022-12-05T05:37:37;99106.84;;;1.07;100.00
54389;BME280;40975;50.390;8.640;2022-12-05T05:40:03;99097.31;;;1.06;100.00
54389;BME280;40975;50.390;8.640;2022-12-05T05:42:29;99103.34;;;1.07;100.00
54389;BME280;40975;50.390;8.640;2022-12-05T05:44:54;99112.47;;;1.00;100.00
54389;BME280;40975;50.390;8.640;2022-12-05T05:47:20;99113.25;;;1.02;100.00
54389;BME280;40975;50.390;8.640;2022-12-05T05:49:45;99113.31;;;1.00;100.00
54389;BME280;40975;50.390;8.640;2022-12-05T05:52:10;99107.63;;;0.93;100.00
54389;BME280;40975;50.390;8.640;2022-12-05T05:54:36;99112.66;;;0.97;100.00
54389;BME280;40975;50.390;8.640;2022-12-05T05:57:01;99116.13;;;0.97;100.00
54389;BME280;40975;50.390;8.640;2022-12-05T05:59:26;99112.75;;;0.95;100.00
54389;BME280;40975;50.390;8.640;2022-12-05T06:01:52;99115.72;;;0.89;100.00
54389;BME280;40975;50.390;8.640;2022-12-05T06:04:17;99122.28;;;0.96;100.00
54389;BME280;40975;50.390;8.640;2022-12-05T06:06:42;99128.72;;;1.05;100.00
54389;BME280;40975;50.390;8.640;2022-12-05T06:09:08;99124.63;;;1.01;100.00
54389;BME280;40975;50.390;8.640;2022-12-05T06:11:33;99128.06;;;1.01;100.00
54389;BME280;40975;50.390;8.640;2022-12-05T06:13:59;99136.78;;;1.02;100.00
54389;BME280;40975;50.390;8.640;2022-12-05T06:16:26;99136.66;;;1.03;100.00
54389;BME280;40975;50.390;8.640;2022-12-05T06:18:52;99142.16;;;0.99;100.00
54389;BME280;40975;50.390;8.640;2022-12-05T06:21:18;99150.00;;;0.99;100.00
54389;BME280;40975;50.390;8.640;2022-12-05T06:23:43;99131.78;;;0.97;100.00
54389;BME280;40975;50.390;8.640;2022-12-05T06:26:11;99145.44;;;1.02;100.00
54389;BME280;40975;50.390;8.640;2022-12-05T06:28:37;99138.63;;;1.00;100.00
54389;BME280;40975;50.390;8.640;2022-12-05T06:31:08;99137.34;;;1.07;100.00
54389;BME280;40975;50.390;8.640;2022-12-05T06:33:33;99146.88;;;1.08;100.00
54389;BME280;40975;50.390;8.640;2022-12-05T06:36:08;99140.81;;;1.07;100.00
54389;BME280;40975;50.390;8.640;2022-12-05T06:38:34;99141.66;;;1.08;100.00
54389;BME280;40975;50.390;8.640;2022-12-05T06:41:03;99148.06;;;1.02;100.00
54389;BME280;40975;50.390;8.640;2022-12-05T06:43:29;99149.66;;;1.05;100.00
54389;BME280;40975;50.390;8.640;2022-12-05T06:45:54;99146.63;;;1.13;100.00
54389;BME280;40975;50.390;8.640;2022-12-05T06:48:19;99136.09;;;1.14;100.00
54389;BME280;40975;50.390;8.640;2022-12-05T06:50:50;99144.59;;;1.18;100.00
54389;BME280;40975;50.390;8.640;2022-12-05T06:53:16;99144.66;;;1.16;100.00
54389;BME280;40975;50.390;8.640;2022-12-05T06:55:41;99144.41;;;1.21;100.00
54389;BME280;40975;50.390;8.640;2022-12-05T06:58:06;99146.03;;;1.23;100.00
54389;BME280;40975;50.390;8.640;2022-12-05T07:00:32;99145.16;;;1.23;100.00
54389;BME280;40975;50.390;8.640;2022-12-05T07:03:15;99151.06;;;1.27;100.00
54389;BME280;40975;50.390;8.640;2022-12-05T07:05:41;99150.50;;;1.21;100.00
54389;BME280;40975;50.390;8.640;2022-12-05T07:08:06;99157.47;;;1.21;100.00
54389;BME280;40975;50.390;8.640;2022-12-05T07:10:31;99158.41;;;1.20;100.00
54389;BME280;40975;50.390;8.640;2022-12-05T07:12:57;99163.56;;;1.21;100.00
54389;BME280;40975;50.390;8.640;2022-12-05T07:15:22;99157.06;;;1.13;100.00
54389;BME280;40975;50.390;8.640;2022-12-05T07:17:47;99170.56;;;1.21;100.00
54389;BME280;40975;50.390;8.640;2022-12-05T07:20:13;99157.00;;;1.14;100.00
54389;BME280;40975;50.390;8.640;2022-12-05T07:22:42;99171.31;;;1.23;100.00
54389;BME280;40975;50.390;8.640;2022-12-05T07:25:07;99171.41;;;1.21;100.00
54389;BME280;40975;50.390;8.640;2022-12-05T07:27:33;99171.00;;;1.13;100.00
54389;BME280;40975;50.390;8.640;2022-12-05T07:29:58;99177.47;;;1.22;100.00
54389;BME280;40975;50.390;8.640;2022-12-05T07:32:24;99174.44;;;1.14;100.00
54389;BME280;40975;50.390;8.640;2022-12-05T07:34:49;99181.78;;;1.23;100.00
54389;BME280;40975;50.390;8.640;2022-12-05T07:37:14;99190.28;;;1.27;100.00
54389;BME280;40975;50.390;8.640;2022-12-05T07:39:39;99191.13;;;1.27;100.00
54389;BME280;40975;50.390;8.640;2022-12-05T07:42:05;99184.88;;;1.30;100.00
54389;BME280;40975;50.390;8.640;2022-12-05T07:44:31;99187.59;;;1.28;100.00
54389;BME280;40975;50.390;8.640;2022-12-05T07:46:56;99187.50;;;1.30;100.00
54389;BME280;40975;50.390;8.640;2022-12-05T07:49:22;99189.97;;;1.33;100.00
54389;BME280;40975;50.390;8.640;2022-12-05T07:51:48;99186.94;;;1.24;100.00
54389;BME280;40975;50.390;8.640;2022-12-05T07:54:13;99204.22;;;1.27;100.00
54389;BME280;40975;50.390;8.640;2022-12-05T07:56:38;99197.13;;;1.29;100.00
54389;BME280;40975;50.390;8.640;2022-12-05T07:59:04;99200.31;;;1.34;100.00
54389;BME280;40975;50.390;8.640;2022-12-05T08:01:29;99202.69;;;1.39;100.00
54389;BME280;40975;50.390;8.640;2022-12-05T08:03:57;99211.28;;;1.41;100.00
54389;BME280;40975;50.390;8.640;2022-12-05T08:06:25;99218.63;;;1.50;100.00
54389;BME280;40975;50.390;8.640;2022-12-05T08:08:52;99209.06;;;1.49;100.00
54389;BME280;40975;50.390;8.640;2022-12-05T08:11:20;99205.19;;;1.57;100.00
54389;BME280;40975;50.390;8.640;2022-12-05T08:13:46;99211.16;;;1.59;100.00
54389;BME280;40975;50.390;8.640;2022-12-05T08:16:13;99221.63;;;1.59;100.00
54389;BME280;40975;50.390;8.640;2022-12-05T08:18:39;99221.53;;;1.60;100.00
54389;BME280;40975;50.390;8.640;2022-12-05T08:21:08;99224.09;;;1.62;100.00
54389;BME280;40975;50.390;8.640;2022-12-05T08:23:34;99220.97;;;1.55;100.00
54389;BME280;40975;50.390;8.640;2022-12-05T08:26:11;99230.75;;;1.67;100.00
54389;BME280;40975;50.390;8.640;2022-12-05T08:28:37;99242.03;;;1.68;100.00
54389;BME280;40975;50.390;8.640;2022-12-05T08:31:08;99232.44;;;1.68;100.00
54389;BME280;40975;50.390;8.640;2022-12-05T08:33:34;99240.03;;;1.73;100.00
54389;BME280;40975;50.390;8.640;2022-12-05T08:36:01;99239.09;;;1.74;100.00
54389;BME280;40975;50.390;8.640;2022-12-05T08:38:27;99246.41;;;1.83;100.00
54389;BME280;40975;50.390;8.640;2022-12-05T08:40:53;99239.28;;;1.85;100.00
54389;BME280;40975;50.390;8.640;2022-12-05T08:43:18;99250.00;;;1.97;100.00
54389;BME280;40975;50.390;8.640;2022-12-05T08:45:53;99248.03;;;2.00;100.00
54389;BME280;40975;50.390;8.640;2022-12-05T08:48:19;99247.59;;;2.08;100.00
54389;BME280;40975;50.390;8.640;2022-12-05T08:50:44;99254.09;;;2.17;100.00
54389;BME280;40975;50.390;8.640;2022-12-05T08:53:10;99263.38;;;2.37;100.00
54389;BME280;40975;50.390;8.640;2022-12-05T08:55:35;99261.50;;;2.39;100.00
54389;BME280;40975;50.390;8.640;2022-12-05T08:58:01;99266.66;;;2.41;100.00
54389;BME280;40975;50.390;8.640;2022-12-05T09:00:27;99269.84;;;2.46;100.00
54389;BME280;40975;50.390;8.640;2022-12-05T09:02:52;99265.81;;;2.40;100.00
54389;BME280;40975;50.390;8.640;2022-12-05T09:05:17;99266.31;;;2.47;100.00
54389;BME280;40975;50.390;8.640;2022-12-05T09:07:43;99273.13;;;2.49;100.00
54389;BME280;40975;50.390;8.640;2022-12-05T09:10:08;99278.59;;;2.61;100.00
54389;BME280;40975;50.390;8.640;2022-12-05T09:12:36;99275.50;;;2.69;100.00
54389;BME280;40975;50.390;8.640;2022-12-05T09:15:02;99274.09;;;2.63;100.00
54389;BME280;40975;50.390;8.640;2022-12-05T09:17:27;99271.75;;;2.73;100.00
54389;BME280;40975;50.390;8.640;2022-12-05T09:19:53;99272.50;;;2.75;100.00
54389;BME280;40975;50.390;8.640;2022-12-05T09:22:19;99284.84;;;2.73;100.00
54389;BME280;40975;50.390;8.640;2022-12-05T09:24:46;99282.06;;;2.76;100.00
54389;BME280;40975;50.390;8.640;2022-12-05T09:27:11;99287.19;;;2.77;100.00
54389;BME280;40975;50.390;8.640;2022-12-05T09:29:37;99290.75;;;2.76;100.00
54389;BME280;40975;50.390;8.640;2022-12-05T09:32:02;99292.75;;;2.87;100.00
54389;BME280;40975;50.390;8.640;2022-12-05T09:34:28;99291.41;;;2.80;100.00
54389;BME280;40975;50.390;8.640;2022-12-05T09:36:53;99297.88;;;2.89;100.00
54389;BME280;40975;50.390;8.640;2022-12-05T09:39:19;99286.66;;;2.72;100.00
54389;BME280;40975;50.390;8.640;2022-12-05T09:50:24;99291.22;;;2.69;100.00
54389;BME280;40975;50.390;8.640;2022-12-05T09:53:05;99298.72;;;2.75;100.00
54389;BME280;40975;50.390;8.640;2022-12-05T09:58:16;99287.50;;;2.87;100.00
54389;BME280;40975;50.390;8.640;2022-12-05T10:00:43;99283.34;;;2.83;100.00
54389;BME280;40975;50.390;8.640;2022-12-05T10:03:23;99287.38;;;2.89;100.00
54389;BME280;40975;50.390;8.640;2022-12-05T10:06:00;99287.56;;;2.86;100.00
54389;BME280;40975;50.390;8.640;2022-12-05T10:11:18;99286.19;;;2.94;100.00
54389;BME280;40975;50.390;8.640;2022-12-05T10:16:56;99284.00;;;2.87;100.00
54389;BME280;40975;50.390;8.640;2022-12-05T10:19:33;99281.09;;;2.91;100.00
54389;BME280;40975;50.390;8.640;2022-12-05T10:22:11;99277.47;;;2.94;100.00
54389;BME280;40975;50.390;8.640;2022-12-05T10:24:42;99278.41;;;2.93;100.00
54389;BME280;40975;50.390;8.640;2022-12-05T10:27:36;99275.50;;;2.98;100.00
54389;BME280;40975;50.390;8.640;2022-12-05T10:30:12;99269.03;;;3.03;100.00
54389;BME280;40975;50.390;8.640;2022-12-05T10:32:52;99260.44;;;3.01;100.00
54389;BME280;40975;50.390;8.640;2022-12-05T10:37:47;99273.34;;;3.04;100.00
54389;BME280;40975;50.390;8.640;2022-12-05T10:40:14;99270.53;;;3.07;100.00
54389;BME280;40975;50.390;8.640;2022-12-05T10:42:40;99274.44;;;3.15;100.00
54389;BME280;40975;50.390;8.640;2022-12-05T10:45:12;99274.63;;;3.26;100.00
54389;BME280;40975;50.390;8.640;2022-12-05T10:47:37;99268.50;;;3.40;100.00
54389;BME280;40975;50.390;8.640;2022-12-05T10:50:07;99264.75;;;3.44;100.00
54389;BME280;40975;50.390;8.640;2022-12-05T10:52:41;99270.81;;;3.45;100.00
54389;BME280;40975;50.390;8.640;2022-12-05T10:55:06;99267.19;;;3.47;100.00
54389;BME280;40975;50.390;8.640;2022-12-05T10:57:32;99270.56;;;3.49;100.00
54389;BME280;40975;50.390;8.640;2022-12-05T11:00:12;99273.56;;;3.43;100.00
54389;BME280;40975;50.390;8.640;2022-12-05T11:02:39;99268.59;;;3.53;100.00
54389;BME280;40975;50.390;8.640;2022-12-05T11:05:06;99260.72;;;3.53;100.00
54389;BME280;40975;50.390;8.640;2022-12-05T11:07:35;99247.03;;;3.48;100.00
54389;BME280;40975;50.390;8.640;2022-12-05T11:10:18;99257.69;;;3.59;100.00
54389;BME280;40975;50.390;8.640;2022-12-05T11:12:44;99257.94;;;3.69;100.00
54389;BME280;40975;50.390;8.640;2022-12-05T11:17:47;99251.50;;;3.87;100.00
54389;BME280;40975;50.390;8.640;2022-12-05T11:22:46;99252.66;;;3.96;100.00
54389;BME280;40975;50.390;8.640;2022-12-05T11:27:53;99256.56;;;4.03;100.00
54389;BME280;40975;50.390;8.640;2022-12-05T11:30:21;99249.72;;;4.01;100.00
54389;BME280;40975;50.390;8.640;2022-12-05T11:32:46;99250.78;;;3.98;100.00
54389;BME280;40975;50.390;8.640;2022-12-05T11:35:25;99261.84;;;4.03;100.00
54389;BME280;40975;50.390;8.640;2022-12-05T11:37:57;99262.13;;;3.99;100.00
54389;BME280;40975;50.390;8.640;2022-12-05T11:40:33;99257.53;;;4.02;100.00
54389;BME280;40975;50.390;8.640;2022-12-05T11:48:21;99258.84;;;3.95;100.00
54389;BME280;40975;50.390;8.640;2022-12-05T11:51:16;99256.31;;;3.94;100.00
54389;BME280;40975;50.390;8.640;2022-12-05T11:54:07;99244.34;;;3.89;100.00
54389;BME280;40975;50.390;8.640;2022-12-05T11:56:44;99262.53;;;3.93;100.00
54389;BME280;40975;50.390;8.640;2022-12-05T12:05:41;99253.91;;;3.91;100.00
54389;BME280;40975;50.390;8.640;2022-12-05T12:08:17;99259.38;;;3.87;100.00
54389;BME280;40975;50.390;8.640;2022-12-05T12:10:52;99253.81;;;3.92;100.00
54389;BME280;40975;50.390;8.640;2022-12-05T12:13:40;99248.69;;;4.03;100.00
54389;BME280;40975;50.390;8.640;2022-12-05T12:30:06;99260.28;;;4.14;100.00
54389;BME280;40975;50.390;8.640;2022-12-05T12:32:43;99256.97;;;4.10;100.00
54389;BME280;40975;50.390;8.640;2022-12-05T12:37:50;99251.97;;;4.20;100.00
54389;BME280;40975;50.390;8.640;2022-12-05T12:40:22;99254.28;;;4.25;100.00
54389;BME280;40975;50.390;8.640;2022-12-05T12:42:55;99254.28;;;4.25;100.00
54389;BME280;40975;50.390;8.640;2022-12-05T12:45:35;99261.41;;;4.10;100.00
54389;BME280;40975;50.390;8.640;2022-12-05T12:50:43;99257.91;;;3.96;100.00
54389;BME280;40975;50.390;8.640;2022-12-05T12:53:37;99268.06;;;3.88;100.00
54389;BME280;40975;50.390;8.640;2022-12-05T12:56:28;99263.13;;;3.83;100.00
54389;BME280;40975;50.390;8.640;2022-12-05T13:01:49;99264.31;;;3.65;100.00
54389;BME280;40975;50.390;8.640;2022-12-05T13:04:23;99261.69;;;3.65;100.00
54389;BME280;40975;50.390;8.640;2022-12-05T13:06:57;99269.75;;;3.62;100.00
54389;BME280;40975;50.390;8.640;2022-12-05T13:09:42;99267.78;;;3.65;100.00
54389;BME280;40975;50.390;8.640;2022-12-05T13:12:14;99257.97;;;3.82;100.00
54389;BME280;40975;50.390;8.640;2022-12-05T13:14:48;99261.06;;;3.88;100.00
54389;BME280;40975;50.390;8.640;2022-12-05T13:17:19;99263.00;;;3.85;100.00
54389;BME280;40975;50.390;8.640;2022-12-05T13:19:50;99266.38;;;3.87;100.00
54389;BME280;40975;50.390;8.640;2022-12-05T13:22:19;99242.72;;;3.74;100.00
54389;BME280;40975;50.390;8.640;2022-12-05T13:24:45;99251.03;;;3.81;100.00
54389;BME280;40975;50.390;8.640;2022-12-05T13:27:24;99255.53;;;3.79;100.00
54389;BME280;40975;50.390;8.640;2022-12-05T13:32:37;99255.69;;;3.63;100.00
54389;BME280;40975;50.390;8.640;2022-12-05T13:35:08;99263.88;;;3.58;100.00
54389;BME280;40975;50.390;8.640;2022-12-05T13:37:35;99262.94;;;3.59;100.00
54389;BME280;40975;50.390;8.640;2022-12-05T13:43:03;99276.53;;;3.51;100.00
54389;BME280;40975;50.390;8.640;2022-12-05T13:45:30;99284.22;;;3.54;100.00
54389;BME280;40975;50.390;8.640;2022-12-05T13:55:36;99283.13;;;3.44;100.00
54389;BME280;40975;50.390;8.640;2022-12-05T14:00:48;99275.44;;;3.41;100.00
54389;BME280;40975;50.390;8.640;2022-12-05T14:03:53;99278.44;;;3.35;100.00
54389;BME280;40975;50.390;8.640;2022-12-05T14:06:02;99279.50;;;3.32;100.00
54389;BME280;40975;50.390;8.640;2022-12-05T14:15:49;99282.31;;;3.29;100.00
54389;BME280;40975;50.390;8.640;2022-12-05T14:18:28;99284.19;;;3.27;100.00
54389;BME280;40975;50.390;8.640;2022-12-05T14:29:34;99282.88;;;3.20;100.00
54389;BME280;40975;50.390;8.640;2022-12-05T14:32:14;99286.34;;;3.20;100.00
54389;BME280;40975;50.390;8.640;2022-12-05T14:34:54;99285.59;;;3.18;100.00
54389;BME280;40975;50.390;8.640;2022-12-05T14:37:27;99285.69;;;3.17;100.00
54389;BME280;40975;50.390;8.640;2022-12-05T14:39:58;99288.88;;;3.22;100.00
54389;BME280;40975;50.390;8.640;2022-12-05T14:42:30;99293.38;;;3.20;100.00
54389;BME280;40975;50.390;8.640;2022-12-05T14:45:03;99290.00;;;3.18;100.00
54389;BME280;40975;50.390;8.640;2022-12-05T14:47:49;99296.19;;;3.17;100.00
54389;BME280;40975;50.390;8.640;2022-12-05T14:53:32;99293.09;;;3.10;100.00
54389;BME280;40975;50.390;8.640;2022-12-05T14:58:34;99302.19;;;3.04;100.00
54389;BME280;40975;50.390;8.640;2022-12-05T15:03:55;99310.25;;;3.01;100.00
54389;BME280;40975;50.390;8.640;2022-12-05T15:06:23;99298.34;;;2.95;100.00
54389;BME280;40975;50.390;8.640;2022-12-05T15:08:53;99307.25;;;2.93;100.00
54389;BME280;40975;50.390;8.640;2022-12-05T15:11:22;99302.09;;;2.91;100.00
54389;BME280;40975;50.390;8.640;2022-12-05T15:13:56;99307.25;;;2.93;100.00
54389;BME280;40975;50.390;8.640;2022-12-05T15:16:24;99308.19;;;2.92;100.00
54389;BME280;40975;50.390;8.640;2022-12-05T15:18:56;99302.84;;;2.93;100.00
54389;BME280;40975;50.390;8.640;2022-12-05T15:21:39;99313.31;;;2.93;100.00
54389;BME280;40975;50.390;8.640;2022-12-05T15:24:12;99310.88;;;2.90;100.00
54389;BME280;40975;50.390;8.640;2022-12-05T15:26:40;99309.22;;;2.89;100.00